No particular awareness of the weather is required.    There are no Weather-warnings


Meteo18 Weather Cam more information Meteo18 Weather Cam


Thunder radar more information blitzortung!


Rain radar more information rain snow radar


Visit our other weather sites:

Template documentation
and downloads

And another site



Weather Underground History page Text

Daily Summary for February 13, 2018 Units:  English    Metric   Both
« Previous Day
Next Day »
Daily Weekly Monthly Yearly Custom
  High: Low: Average:
Temperature: TemperatureC °F -4.8 °F -1 °F
Dew Point: DewpointC °F -5.5 °F -2.5 °F
Humidity: Humidity % 66 % 90 %
Wind Speed: WindSpeedKMH mph 0.0 mph 2.7 mph
Wind Gust: WindSpeedGustKMH mph - -
Wind:- - SSE
Pressure: PressurehPa in 1006.7 in -
Precipitation: 0.0 in    
Historical Graphs
 
 
Tabular Data for February 13, 2018
Time Temperature Dew Point Pressure Wind Wind Speed Wind Gust Humidity Rainfall Rate (Hourly)
TemperatureC °F DewpointC °F PressurehPa in Calm     Humidity % HourlyPrecipMM in
00:05 -2.3 °F -3.4 °F 1019.2 in Calm     92 % 0.0 in
00:11 -2.1 °F -3.1 °F 1019.2 in Calm     93 % 0.0 in
00:17 -2.1 °F -3.2 °F 1019.2 in Calm     92 % 0.0 in
00:23 -2.1 °F -3.1 °F 1019.2 in Calm     93 % 0.0 in
00:29 -2.1 °F -3.2 °F 1019.2 in Calm     92 % 0.0 in
00:35 -2.2 °F -3.3 °F 1019.2 in Calm     92 % 0.0 in
00:41 -2.4 °F -3.5 °F 1019.2 in Calm     92 % 0.0 in
00:47 -2.4 °F -3.4 °F 1019.2 in Calm     93 % 0.0 in
00:53 -2.6 °F -3.6 °F 1019.2 in Calm   1.6 mph 93 % 0.0 in
00:59 -2.6 °F -3.6 °F 1019.2 in Calm     93 % 0.0 in
01:05 -2.6 °F -3.6 °F 1018.8 in Calm     93 % 0.0 in
01:11 -2.8 °F -3.8 °F 1018.8 in Calm     93 % 0.0 in
01:18 -2.9 °F -3.9 °F 1018.8 in Calm   1.6 mph 93 % 0.0 in
01:24 -2.8 °F -3.6 °F 1018.8 in Calm     94 % 0.0 in
01:30 -2.9 °F -3.7 °F 1018.8 in Calm     94 % 0.0 in
01:36 -3.0 °F -3.8 °F 1018.8 in Calm     94 % 0.0 in
01:42 -3.2 °F -4.0 °F 1018.8 in Calm     94 % 0.0 in
01:48 -3.2 °F -4.0 °F 1018.8 in Calm     94 % 0.0 in
01:54 -3.2 °F -4.0 °F 1018.5 in Calm     94 % 0.0 in
02:00 -3.2 °F -4.0 °F 1018.5 in Calm     94 % 0.0 in
02:06 -3.3 °F -4.1 °F 1018.5 in Calm     94 % 0.0 in
02:12 -3.2 °F -3.9 °F 1018.5 in Calm     95 % 0.0 in
02:18 -3.3 °F -4.1 °F 1018.5 in Calm     94 % 0.0 in
02:24 -3.4 °F -4.1 °F 1018.2 in Calm     95 % 0.0 in
02:30 -3.4 °F -4.1 °F 1018.2 in Calm     95 % 0.0 in
02:36 -3.5 °F -4.2 °F 1018.2 in Calm     95 % 0.0 in
02:42 -3.4 °F -4.1 °F 1018.2 in Calm     95 % 0.0 in
02:48 -3.5 °F -4.2 °F 1018.2 in Calm     95 % 0.0 in
02:54 -3.4 °F -4.1 °F 1018.2 in Calm     95 % 0.0 in
03:00 -3.4 °F -4.1 °F 1017.8 in Calm     95 % 0.0 in
03:06 -3.6 °F -4.3 °F 1017.8 in Calm     95 % 0.0 in
03:12 -3.7 °F -4.4 °F 1017.8 in Calm     95 % 0.0 in
03:18 -3.5 °F -4.2 °F 1017.8 in Calm     95 % 0.0 in
03:24 -3.6 °F -4.3 °F 1017.8 in Calm     95 % 0.0 in
03:30 -3.6 °F -4.3 °F 1017.8 in Calm     95 % 0.0 in
03:36 -3.6 °F -4.3 °F 1017.5 in Calm     95 % 0.0 in
03:42 -3.7 °F -4.4 °F 1017.5 in Calm     95 % 0.0 in
03:48 -3.8 °F -4.5 °F 1017.5 in Calm   1.6 mph 95 % 0.0 in
03:54 -3.9 °F -4.6 °F 1017.5 in Calm   1.6 mph 95 % 0.0 in
04:00 -3.8 °F -4.5 °F 1017.5 in Calm     95 % 0.0 in
04:06 -4.0 °F -4.7 °F 1017.5 in Calm     95 % 0.0 in
04:12 -4.2 °F -4.9 °F 1017.2 in Calm     95 % 0.0 in
04:18 -4.0 °F -4.5 °F 1017.2 in Calm     96 % 0.0 in
04:24 -3.9 °F -4.4 °F 1016.8 in Calm     96 % 0.0 in
04:30 -3.8 °F -4.3 °F 1016.8 in Calm     96 % 0.0 in
04:36 -3.8 °F -4.3 °F 1016.8 in Calm     96 % 0.0 in
04:42 -3.9 °F -4.4 °F 1016.8 in Calm     96 % 0.0 in
04:48 -3.9 °F -4.4 °F 1016.8 in Calm     96 % 0.0 in
04:54 -4.0 °F -4.7 °F 1016.5 in Calm     95 % 0.0 in
05:00 -4.1 °F -4.8 °F 1016.5 in Calm     95 % 0.0 in
05:06 -4.3 °F -5.0 °F 1016.5 in Calm     95 % 0.0 in
05:12 -4.4 °F -5.1 °F 1016.1 in Calm     95 % 0.0 in
05:18 -4.4 °F -4.9 °F 1016.1 in Calm     96 % 0.0 in
05:24 -4.4 °F -4.9 °F 1016.1 in Calm     96 % 0.0 in
05:30 -4.6 °F -5.3 °F 1016.1 in Calm     95 % 0.0 in
05:36 -4.7 °F -5.2 °F 1015.8 in Calm     96 % 0.0 in
05:42 -4.6 °F -5.1 °F 1015.8 in Calm     96 % 0.0 in
05:49 -4.5 °F -5.0 °F 1015.8 in Calm     96 % 0.0 in
05:55 -4.7 °F -5.2 °F 1015.8 in Calm     96 % 0.0 in
06:01 -4.6 °F -5.1 °F 1015.8 in Calm     96 % 0.0 in
06:07 -4.5 °F -5.0 °F 1015.5 in Calm     96 % 0.0 in
06:13 -4.6 °F -5.1 °F 1015.5 in Calm     96 % 0.0 in
06:19 -4.7 °F -5.2 °F 1015.5 in Calm     96 % 0.0 in
06:25 -4.6 °F -5.1 °F 1015.1 in Calm     96 % 0.0 in
06:31 -4.4 °F -4.9 °F 1015.1 in Calm     96 % 0.0 in
06:37 -4.3 °F -4.8 °F 1015.1 in Calm     96 % 0.0 in
06:43 -4.6 °F -5.1 °F 1014.8 in Calm     96 % 0.0 in
06:49 -4.4 °F -4.9 °F 1014.8 in Calm     96 % 0.0 in
06:55 -4.7 °F -5.2 °F 1014.8 in Calm     96 % 0.0 in
07:01 -4.6 °F -5.1 °F 1014.4 in Calm     96 % 0.0 in
07:07 -4.6 °F -5.1 °F 1014.4 in Calm     96 % 0.0 in
07:13 -4.8 °F -5.5 °F 1014.4 in Calm     95 % 0.0 in
07:19 -4.8 °F -5.3 °F 1014.4 in Calm     96 % 0.0 in
07:25 -4.7 °F -5.2 °F 1014.1 in Calm     96 % 0.0 in
07:31 -4.7 °F -5.2 °F 1014.1 in Calm     96 % 0.0 in
07:37 -4.7 °F -5.2 °F 1014.1 in SW 1.4 mph 1.6 mph 96 % 0.0 in
07:44 -4.6 °F -5.1 °F 1014.1 in Calm   1.6 mph 96 % 0.0 in
07:49 -4.4 °F -4.9 °F 1014.1 in Calm   1.6 mph 96 % 0.0 in
07:56 -4.3 °F -4.8 °F 1013.8 in Calm     96 % 0.0 in
08:02 -4.3 °F -4.8 °F 1013.8 in Calm     96 % 0.0 in
08:08 -4.3 °F -5.0 °F 1013.8 in Calm   1.6 mph 95 % 0.0 in
08:14 -4.2 °F -4.9 °F 1013.8 in Calm   1.6 mph 95 % 0.0 in
08:20 -4.1 °F -4.8 °F 1013.8 in Calm     95 % 0.0 in
08:26 -3.9 °F -4.6 °F 1013.8 in Calm   1.6 mph 95 % 0.0 in
08:32 -3.8 °F -4.6 °F 1013.8 in SW 3.2 mph 3.2 mph 94 % 0.0 in
08:38 -3.6 °F -4.4 °F 1013.8 in SSW 3.2 mph 4.8 mph 94 % 0.0 in
08:44 -3.3 °F -4.1 °F 1013.8 in South 1.4 mph 3.2 mph 94 % 0.0 in
08:50 -3.1 °F -4.1 °F 1013.4 in Calm   3.2 mph 93 % 0.0 in
08:56 -2.7 °F -3.7 °F 1013.4 in Calm   6.4 mph 93 % 0.0 in
09:02 -2.4 °F -3.5 °F 1013.1 in SE 3.2 mph 6.4 mph 92 % 0.0 in
09:08 -2.3 °F -3.6 °F 1012.8 in SE 3.2 mph 6.4 mph 91 % 0.0 in
09:14 -1.9 °F -3.2 °F 1012.8 in Calm   3.2 mph 91 % 0.0 in
09:20 -1.5 °F -2.8 °F 1012.8 in SSE 1.4 mph 6.4 mph 91 % 0.0 in
09:26 -1.3 °F -2.9 °F 1012.8 in South 3.2 mph 11.3 mph 89 % 0.0 in
09:32 -1.2 °F -2.8 °F 1012.8 in SSW 3.2 mph 9.7 mph 89 % 0.0 in
09:38 -0.9 °F -2.6 °F 1012.8 in SE 3.2 mph 6.4 mph 88 % 0.0 in
09:48 -0.6 °F -2.3 °F 1012.8 in SSW 1.4 mph 6.4 mph 88 % 0.0 in
09:54 -0.4 °F -2.3 °F 1012.4 in SSW 3.2 mph 8.0 mph 87 % 0.0 in
10:00 -0.4 °F -2.5 °F 1012.4 in SSE 1.4 mph 8.0 mph 86 % 0.0 in
10:06 -0.4 °F -2.6 °F 1012.4 in SE 11.1 mph 14.5 mph 85 % 0.0 in
10:12 -0.2 °F -2.4 °F 1012.1 in SSE 3.2 mph 11.3 mph 85 % 0.0 in
10:18 0.1 °F -2.3 °F 1012.1 in SE 4.7 mph 9.7 mph 84 % 0.0 in
10:24 0.3 °F -2.1 °F 1012.1 in South 3.2 mph 9.7 mph 84 % 0.0 in
10:30 0.3 °F -2.1 °F 1011.7 in SE 13.0 mph 13.0 mph 84 % 0.0 in
10:36 0.3 °F -2.4 °F 1011.7 in SSW 6.4 mph 16.1 mph 82 % 0.0 in
10:42 0.5 °F -2.1 °F 1011.7 in South 11.1 mph 14.5 mph 83 % 0.0 in
10:48 0.6 °F -2.5 °F 1011.7 in SSE 6.4 mph 17.7 mph 80 % 0.0 in
10:54 0.7 °F -2.4 °F 1011.4 in ESE 11.1 mph 16.1 mph 80 % 0.0 in
11:00 0.8 °F -2.3 °F 1011.4 in SSE 3.2 mph 17.7 mph 80 % 0.0 in
11:06 0.9 °F -2.0 °F 1011.4 in South 3.2 mph 4.8 mph 81 % 0.0 in
11:12 1.0 °F -2.1 °F 1011.4 in SW 7.9 mph 12.9 mph 80 % 0.0 in
11:18 1.1 °F -2.0 °F 1011.1 in SE 3.2 mph 9.7 mph 80 % 0.0 in
11:24 1.2 °F -2.2 °F 1011.1 in SSE 7.9 mph 22.5 mph 78 % 0.0 in
11:30 1.3 °F -2.1 °F 1010.7 in SE 4.7 mph 14.5 mph 78 % 0.0 in
11:36 1.4 °F -2.2 °F 1010.7 in SE 3.2 mph 12.9 mph 77 % 0.0 in
11:42 1.6 °F -2.0 °F 1010.7 in South 6.4 mph 14.5 mph 77 % 0.0 in
11:48 1.7 °F -2.1 °F 1010.7 in SSE 9.7 mph 11.3 mph 76 % 0.0 in
11:54 1.8 °F -2.3 °F 1010.7 in SSE 9.7 mph 20.9 mph 74 % 0.0 in
12:00 2.0 °F -2.1 °F 1010.4 in SE 4.7 mph 12.9 mph 74 % 0.0 in
12:06 2.1 °F -2.0 °F 1010.4 in ESE 4.7 mph 12.9 mph 74 % 0.0 in
12:12 2.2 °F -2.1 °F 1010.4 in SSW 6.4 mph 14.5 mph 73 % 0.0 in
12:18 2.3 °F -2.0 °F 1010.0 in SE 3.2 mph 8.0 mph 73 % 0.0 in
12:24 2.3 °F -2.4 °F 1010.0 in SSE 3.2 mph 12.9 mph 71 % 0.0 in
12:30 2.2 °F -2.3 °F 1009.7 in SE 16.3 mph 17.7 mph 72 % 0.0 in
12:36 2.2 °F -2.3 °F 1009.7 in SE 6.4 mph 14.5 mph 72 % 0.0 in
12:42 2.1 °F -2.6 °F 1009.4 in ESE 7.9 mph 17.7 mph 71 % 0.0 in
12:48 2.2 °F -2.3 °F 1009.4 in SE 11.1 mph 14.5 mph 72 % 0.0 in
12:54 2.3 °F -2.4 °F 1009.0 in SSE 16.3 mph 22.5 mph 71 % 0.0 in
13:00 2.3 °F -2.8 °F 1009.0 in SE 6.4 mph 19.3 mph 69 % 0.0 in
13:06 2.3 °F -2.6 °F 1008.7 in SE 6.4 mph 14.5 mph 70 % 0.0 in
13:12 2.3 °F -3.0 °F 1008.4 in SSE 6.4 mph 14.5 mph 68 % 0.0 in
13:18 2.4 °F -2.9 °F 1008.7 in East 4.7 mph 16.1 mph 68 % 0.0 in
13:24 2.4 °F -2.9 °F 1008.4 in SE 6.4 mph 16.1 mph 68 % 0.0 in
13:30 2.4 °F -3.1 °F 1008.4 in ESE 6.4 mph 17.7 mph 67 % 0.0 in
13:36 2.4 °F -3.1 °F 1008.4 in SE 3.2 mph 11.3 mph 67 % 0.0 in
13:42 2.4 °F -3.1 °F 1008.0 in SE 1.4 mph 9.7 mph 67 % 0.0 in
13:48 2.5 °F -3.0 °F 1008.0 in SE 6.4 mph 14.5 mph 67 % 0.0 in
13:54 2.5 °F -3.0 °F 1008.0 in SE 3.2 mph 16.1 mph 67 % 0.0 in
14:00 2.5 °F -3.2 °F 1008.0 in SE 4.7 mph 20.9 mph 66 % 0.0 in
14:06 2.5 °F -3.0 °F 1008.0 in South 7.9 mph 16.1 mph 67 % 0.0 in
14:12 2.4 °F -3.1 °F 1008.0 in SSE 4.7 mph 16.1 mph 67 % 0.0 in
14:18 2.4 °F -3.3 °F 1008.0 in SSW 9.7 mph 17.7 mph 66 % 0.0 in
14:24 2.3 °F -3.0 °F 1008.0 in South 4.7 mph 22.5 mph 68 % 0.0 in
14:30 2.4 °F -2.5 °F 1007.7 in SSE 11.1 mph 11.3 mph 70 % 0.0 in
14:36 2.4 °F -2.9 °F 1007.7 in SSW 6.4 mph 16.1 mph 68 % 0.0 in
14:42 2.4 °F -2.7 °F 1007.7 in South 7.9 mph 20.9 mph 69 % 0.0 in
14:48 2.4 °F -2.5 °F 1007.7 in SSW 13.0 mph 19.3 mph 70 % 0.0 in
14:54 2.4 °F -2.5 °F 1007.3 in South 13.0 mph 20.9 mph 70 % 0.0 in
15:01 2.4 °F -2.5 °F 1007.3 in SW 16.3 mph 17.7 mph 70 % 0.0 in
15:07 2.4 °F -2.7 °F 1007.3 in South 6.4 mph 11.3 mph 69 % 0.0 in
15:13 2.4 °F -2.5 °F 1007.3 in SE 7.9 mph 17.7 mph 70 % 0.0 in
15:19 2.3 °F -2.0 °F 1007.3 in SSW 17.7 mph 30.6 mph 73 % 0.0 in
15:25 1.8 °F -1.6 °F 1007.3 in SW 19.5 mph 24.1 mph 78 % 0.0 in
15:31 1.4 °F -1.2 °F 1007.3 in SSW 14.3 mph 24.1 mph 83 % 0.0 in
15:37 1.3 °F -0.9 °F 1007.3 in SSW 9.7 mph 22.5 mph 85 % 0.0 in
15:43 1.0 °F -0.9 °F 1007.3 in South 9.7 mph 22.5 mph 87 % 0.0 in
15:49 0.4 °F -0.9 °F 1007.3 in SSW 9.7 mph 17.7 mph 91 % 0.0 in
15:55 0.2 °F -0.8 °F 1007.3 in SSW 13.0 mph 14.5 mph 93 % 0.0 in
16:01 0.1 °F -0.8 °F 1007.3 in SSW 4.7 mph 11.3 mph 94 % 0.0 in
16:07 0.0 °F -0.8 °F 1007.3 in SSW 9.7 mph 11.3 mph 94 % 0.0 in
16:13 -0.1 °F -0.8 °F 1007.3 in SSE 1.4 mph 9.7 mph 95 % 0.0 in
16:19 -0.1 °F -0.8 °F 1007.3 in South 1.4 mph 6.4 mph 95 % 0.0 in
16:25 0.0 °F -0.7 °F 1007.3 in South 4.7 mph 4.8 mph 95 % 0.0 in
16:31 0.0 °F -0.7 °F 1007.3 in SSE 4.7 mph 8.0 mph 95 % 0.0 in
16:37 0.0 °F -0.6 °F 1007.3 in Calm   4.8 mph 96 % 0.0 in
16:43 0.0 °F -0.6 °F 1007.0 in Calm   8.0 mph 96 % 0.0 in
16:49 0.0 °F -0.6 °F 1007.0 in SE 1.4 mph 9.7 mph 96 % 0.0 in
16:55 0.0 °F -0.6 °F 1007.0 in East 4.7 mph 9.7 mph 96 % 0.0 in
17:01 0.0 °F -0.6 °F 1007.0 in ESE 4.7 mph 8.0 mph 96 % 0.0 in
17:07 0.0 °F -0.6 °F 1007.0 in SE 6.4 mph 6.4 mph 96 % 0.0 in
17:13 0.0 °F -0.6 °F 1006.7 in East 6.4 mph 9.7 mph 96 % 0.0 in
17:19 0.0 °F -0.6 °F 1006.7 in East 11.1 mph 11.3 mph 96 % 0.0 in
17:25 0.0 °F -0.6 °F 1006.7 in SSE 3.2 mph 9.7 mph 96 % 0.0 in
17:31 0.0 °F -0.6 °F 1006.7 in SSE 6.4 mph 8.0 mph 96 % 0.0 in
17:37 0.0 °F -0.6 °F 1006.7 in SSE 1.4 mph 4.8 mph 96 % 0.0 in
17:43 0.0 °F -0.6 °F 1006.7 in SE 1.4 mph 6.4 mph 96 % 0.0 in
17:49 0.0 °F -0.6 °F 1007.0 in SSE 4.7 mph 6.4 mph 96 % 0.0 in
17:55 0.0 °F -0.6 °F 1007.0 in Calm   6.4 mph 96 % 0.0 in
18:01 0.0 °F -0.6 °F 1007.0 in SSE 4.7 mph 8.0 mph 96 % 0.0 in
18:07 0.0 °F -0.6 °F 1007.0 in SSE 4.7 mph 6.4 mph 96 % 0.0 in
18:13 0.0 °F -0.6 °F 1006.7 in Calm   4.8 mph 96 % 0.0 in
18:19 -0.1 °F -0.7 °F 1006.7 in South 1.4 mph 8.0 mph 96 % 0.0 in
18:25 -0.1 °F -0.7 °F 1006.7 in SE 3.2 mph 8.0 mph 96 % 0.0 in
18:31 0.0 °F -0.6 °F 1007.0 in SSE 1.4 mph 11.3 mph 96 % 0.0 in
18:37 0.0 °F -0.6 °F 1007.0 in SSE 1.4 mph 8.0 mph 96 % 0.0 in
18:43 0.0 °F -0.6 °F 1007.0 in SSE 1.4 mph 3.2 mph 96 % 0.0 in
18:49 0.0 °F -0.6 °F 1007.0 in Calm   4.8 mph 96 % 0.0 in
18:55 0.0 °F -0.6 °F 1007.0 in SSE 1.4 mph 4.8 mph 96 % 0.0 in
19:01 0.0 °F -0.6 °F 1007.0 in SE 1.4 mph 4.8 mph 96 % 0.0 in
19:07 0.0 °F -0.6 °F 1007.0 in SSE 1.4 mph 3.2 mph 96 % 0.0 in
19:13 0.0 °F -0.6 °F 1007.0 in ESE 4.7 mph 4.8 mph 96 % 0.0 in
19:19 0.0 °F -0.6 °F 1007.0 in South 1.4 mph 8.0 mph 96 % 0.0 in
19:25 0.0 °F -0.6 °F 1007.0 in SW 6.4 mph 9.7 mph 96 % 0.0 in
19:31 0.0 °F -0.6 °F 1007.0 in SSE 6.4 mph 9.7 mph 96 % 0.0 in
19:37 0.0 °F -0.6 °F 1007.0 in South 3.2 mph 4.8 mph 96 % 0.0 in
19:43 0.0 °F -0.4 °F 1007.0 in Calm   6.4 mph 97 % 0.0 in
19:49 0.0 °F -0.4 °F 1007.0 in SSE 1.4 mph 8.0 mph 97 % 0.0 in
19:55 0.0 °F -0.4 °F 1007.0 in Calm   4.8 mph 97 % 0.0 in
20:01 0.0 °F -0.4 °F 1007.0 in ESE 4.7 mph 6.4 mph 97 % 0.0 in
20:07 0.0 °F -0.4 °F 1007.0 in Calm   6.4 mph 97 % 0.0 in
20:13 0.0 °F -0.4 °F 1007.3 in SSW 3.2 mph 6.4 mph 97 % 0.0 in
20:19 0.1 °F -0.3 °F 1007.3 in Calm   4.8 mph 97 % 0.0 in
20:25 0.1 °F -0.3 °F 1007.3 in Calm   1.6 mph 97 % 0.0 in
20:31 0.1 °F -0.3 °F 1007.3 in SSE 1.4 mph 6.4 mph 97 % 0.0 in
20:37 0.1 °F -0.3 °F 1007.3 in SSW 1.4 mph 3.2 mph 97 % 0.0 in
20:43 0.1 °F -0.3 °F 1007.3 in Calm   1.6 mph 97 % 0.0 in
20:49 0.0 °F -0.4 °F 1007.3 in Calm   1.6 mph 97 % 0.0 in
20:55 0.1 °F -0.3 °F 1007.7 in Calm   1.6 mph 97 % 0.0 in
21:01 0.0 °F -0.4 °F 1007.7 in Calm     97 % 0.0 in
21:07 0.0 °F -0.4 °F 1007.7 in Calm     97 % 0.0 in
21:13 0.0 °F -0.4 °F 1007.7 in Calm     97 % 0.0 in
21:19 0.0 °F -0.4 °F 1007.7 in Calm     97 % 0.0 in
21:25 0.0 °F -0.4 °F 1007.7 in Calm     97 % 0.0 in
21:31 0.0 °F -0.4 °F 1008.0 in Calm     97 % 0.0 in
21:37 0.0 °F -0.4 °F 1008.0 in Calm     97 % 0.0 in
21:43 0.0 °F -0.4 °F 1008.0 in Calm     97 % 0.0 in
21:49 0.1 °F -0.3 °F 1008.4 in Calm     97 % 0.0 in
21:55 0.1 °F -0.3 °F 1008.4 in Calm     97 % 0.0 in
22:03 0.0 °F -0.4 °F 1008.4 in Calm     97 % 0.0 in
22:09 0.0 °F -0.4 °F 1008.4 in Calm     97 % 0.0 in
22:15 0.1 °F -0.3 °F 1008.4 in Calm     97 % 0.0 in
22:21 0.0 °F -0.4 °F 1008.4 in Calm     97 % 0.0 in
22:27 0.0 °F -0.4 °F 1008.7 in Calm     97 % 0.0 in
22:33 0.0 °F -0.4 °F 1008.7 in Calm     97 % 0.0 in
22:40 0.0 °F -0.4 °F 1008.7 in Calm     97 % 0.0 in
22:45 0.0 °F -0.4 °F 1008.7 in Calm     97 % 0.0 in
22:51 0.1 °F -0.3 °F 1008.7 in Calm     97 % 0.0 in
22:58 0.0 °F -0.4 °F 1008.7 in Calm     97 % 0.0 in
23:04 0.1 °F -0.3 °F 1008.7 in Calm     97 % 0.0 in
23:10 0.1 °F -0.3 °F 1009.0 in Calm     97 % 0.0 in
23:16 0.1 °F -0.3 °F 1009.0 in Calm     97 % 0.0 in
23:22 0.1 °F -0.3 °F 1009.0 in Calm     97 % 0.0 in
23:28 0.1 °F -0.3 °F 1009.0 in Calm     97 % 0.0 in
23:34 0.1 °F -0.3 °F 1009.0 in Calm     97 % 0.0 in
23:40 0.2 °F -0.2 °F 1009.4 in Calm     97 % 0.0 in
23:46 0.2 °F -0.2 °F 1009.4 in Calm     97 % 0.0 in
23:52 0.3 °F -0.1 °F 1009.4 in Calm     97 % 0.0 in
23:58 0.3 °F -0.1 °F 1009.4 in Calm     97 % 0.0 in
Meteo18
Compliments of Weather Underground - 4 mb

Script developed by  Jim McMurry - jmcmurry@mwt.net Adapted for the template by  Wim van der Kuil - Leuven-Template.eu

You find our weather info also at:

European Weather Network

Weather Underground

Equipment we use:

Weather-station
Davis Vue

Weather-program
Meteobridge

Weather-server
Raspberry PI 2 B+

Provider
1 and 1

Davis Vue

Meteobridge

Raspberry PI 2 B+

1 and 1